createdAt,value
2023-02-19T00:00:52.696Z,77.53
2023-02-19T00:03:24.680Z,77.54
2023-02-19T00:05:58.567Z,77.77
2023-02-19T00:08:32.105Z,77.77
2023-02-19T00:11:09.439Z,77.61
2023-02-19T00:13:48.124Z,78.21
2023-02-19T00:16:26.989Z,78.24
2023-02-19T00:19:02.632Z,78.27
2023-02-19T00:21:34.997Z,77.82
2023-02-19T00:24:12.524Z,77.98
2023-02-19T00:26:50.900Z,78.21
2023-02-19T00:29:25.588Z,78.25
2023-02-19T00:31:57.472Z,78.09
2023-02-19T00:34:31.600Z,77.86
2023-02-19T00:37:07.756Z,77.71
2023-02-19T00:39:45.470Z,77.74
2023-02-19T00:42:18.560Z,78.22
2023-02-19T00:44:52.009Z,78.33
2023-02-19T00:47:25.594Z,78.35
2023-02-19T00:49:57.341Z,78.06
2023-02-19T00:52:29.582Z,77.94
2023-02-19T00:55:01.857Z,77.89
2023-02-19T00:57:33.529Z,77.97
2023-02-19T01:00:06.928Z,78.17
2023-02-19T01:02:38.564Z,78.33
2023-02-19T01:05:11.512Z,78.19
2023-02-19T01:07:43.222Z,78.16
2023-02-19T01:10:14.874Z,78.15
2023-02-19T01:12:46.750Z,77.88
2023-02-19T01:15:18.795Z,77.52
2023-02-19T01:17:50.538Z,77.72
2023-02-19T01:20:22.170Z,77.84
2023-02-19T01:22:55.686Z,77.96
2023-02-19T01:25:27.635Z,77.98
2023-02-19T01:28:02.296Z,77.42
2023-02-19T01:30:39.660Z,77.09
2023-02-19T01:33:11.939Z,76.91
2023-02-19T01:35:46.582Z,76.76
2023-02-19T01:38:20.436Z,77.09
2023-02-19T01:41:00.002Z,77.42
2023-02-19T01:43:33.436Z,77.18
2023-02-19T01:46:05.236Z,76.69
2023-02-19T01:48:39.148Z,76.85
2023-02-19T01:51:15.848Z,77.00
2023-02-19T01:53:51.623Z,77.29
2023-02-19T01:56:27.993Z,77.19
2023-02-19T01:59:00.436Z,76.87
2023-02-19T02:01:32.551Z,76.97
2023-02-19T02:04:05.686Z,76.60
2023-02-19T02:06:42.492Z,76.49
2023-02-19T02:09:31.992Z,76.22
2023-02-19T02:12:03.720Z,76.29
2023-02-19T02:14:39.308Z,76.40
2023-02-19T02:17:18.529Z,76.31
2023-02-19T02:20:19.576Z,76.14
2023-02-19T02:22:59.305Z,75.99
2023-02-19T02:26:02.963Z,75.78
2023-02-19T02:29:11.082Z,75.36
2023-02-19T02:31:45.855Z,74.79
2023-02-19T02:34:19.775Z,74.77
2023-02-19T02:36:56.016Z,75.12
2023-02-19T02:39:29.629Z,75.37
2023-02-19T02:42:19.730Z,75.37
2023-02-19T02:45:05.221Z,75.20
2023-02-19T02:47:45.190Z,75.05
2023-02-19T02:50:21.578Z,75.17
2023-02-19T02:53:14.476Z,74.26
2023-02-19T02:55:53.512Z,73.93
2023-02-19T02:58:26.838Z,73.93
2023-02-19T03:01:20.299Z,74.50
2023-02-19T03:03:56.952Z,74.62
2023-02-19T03:06:31.407Z,74.75
2023-02-19T03:09:09.588Z,74.68
2023-02-19T03:12:02.764Z,74.59
2023-02-19T03:14:58.441Z,74.50
2023-02-19T03:17:51.060Z,74.25
2023-02-19T03:20:28.873Z,74.31
2023-02-19T03:23:02.648Z,73.85
2023-02-19T03:25:54.002Z,73.99
2023-02-19T03:28:43.173Z,73.99
2023-02-19T03:31:20.280Z,74.12
2023-02-19T03:33:58.688Z,74.00
2023-02-19T03:36:37.200Z,73.88
2023-02-19T03:39:13.714Z,74.15
2023-02-19T03:41:54.332Z,74.22
2023-02-19T03:44:34.886Z,74.22
2023-02-19T03:47:13.133Z,74.41
2023-02-19T03:49:50.293Z,74.06
2023-02-19T03:52:29.068Z,73.88
2023-02-19T03:55:05.196Z,74.14
2023-02-19T03:57:50.306Z,74.65
2023-02-19T04:00:23.009Z,74.98
2023-02-19T04:02:59.920Z,75.00
2023-02-19T04:05:35.275Z,74.97
2023-02-19T04:08:12.987Z,74.83
2023-02-19T04:10:49.200Z,74.96
2023-02-19T04:13:27.616Z,75.03
2023-02-19T04:16:07.141Z,74.83
2023-02-19T04:18:43.352Z,74.57
2023-02-19T04:21:16.636Z,74.41
2023-02-19T04:23:52.798Z,74.65
2023-02-19T04:26:26.425Z,74.69
2023-02-19T04:36:22.379Z,74.06
2023-02-19T04:38:55.723Z,73.80
2023-02-19T04:41:28.318Z,73.96
2023-02-19T04:43:59.848Z,73.99
2023-02-19T04:46:31.452Z,74.34
2023-02-19T04:49:04.745Z,74.36
2023-02-19T04:51:36.600Z,74.60
2023-02-19T04:54:08.671Z,74.11
2023-02-19T04:56:41.087Z,74.66
2023-02-19T04:59:13.325Z,74.58
2023-02-19T05:01:46.854Z,74.30
2023-02-19T05:04:19.352Z,74.58
2023-02-19T05:06:51.642Z,74.61
2023-02-19T05:09:24.777Z,74.61
2023-02-19T05:11:58.304Z,74.59
2023-02-19T05:14:32.989Z,74.65
2023-02-19T05:17:04.782Z,74.85
2023-02-19T05:19:37.986Z,74.54
2023-02-19T05:22:09.734Z,74.26
2023-02-19T05:24:41.458Z,74.16
2023-02-19T05:27:13.395Z,74.39
2023-02-19T05:29:45.368Z,74.49
2023-02-19T05:32:17.448Z,74.24
2023-02-19T05:34:51.620Z,74.08
2023-02-19T05:37:23.594Z,74.01
2023-02-19T05:39:55.475Z,73.72
2023-02-19T05:42:29.565Z,73.93
2023-02-19T05:45:03.741Z,73.90
2023-02-19T05:47:35.670Z,74.14
2023-02-19T05:50:08.157Z,74.06
2023-02-19T05:52:40.124Z,74.47
2023-02-19T05:55:12.488Z,74.23
2023-02-19T05:57:46.148Z,73.98
2023-02-19T06:00:20.748Z,73.61
2023-02-19T06:02:55.227Z,73.98
2023-02-19T06:05:28.192Z,74.06
2023-02-19T06:08:00.042Z,74.52
2023-02-19T06:10:31.632Z,74.35
2023-02-19T06:13:05.152Z,74.19
2023-02-19T06:15:37.626Z,73.92
2023-02-19T06:18:11.596Z,74.35
2023-02-19T06:20:46.361Z,74.58
2023-02-19T06:23:18.076Z,74.09
2023-02-19T06:25:52.499Z,73.88
2023-02-19T06:28:24.493Z,73.97
2023-02-19T06:31:03.939Z,73.93
2023-02-19T06:33:36.271Z,74.17
2023-02-19T06:36:09.446Z,74.03
2023-02-19T06:38:44.960Z,74.23
2023-02-19T06:41:22.448Z,74.35
2023-02-19T06:43:56.061Z,74.54
2023-02-19T06:46:30.742Z,74.51
2023-02-19T06:49:02.553Z,74.36
2023-02-19T06:51:34.962Z,74.21
2023-02-19T06:54:26.458Z,74.26
2023-02-19T06:56:59.984Z,74.28
2023-02-19T06:59:33.388Z,74.20
2023-02-19T07:02:05.280Z,73.86
2023-02-19T07:04:37.395Z,73.89
2023-02-19T07:07:15.810Z,73.96
2023-02-19T07:09:47.799Z,73.95
2023-02-19T07:12:19.785Z,73.92
2023-02-19T07:14:52.829Z,73.73
2023-02-19T07:17:24.745Z,73.83
2023-02-19T07:19:56.345Z,74.10
2023-02-19T07:22:29.065Z,74.08
2023-02-19T07:25:01.853Z,74.05
2023-02-19T07:27:35.867Z,73.82
2023-02-19T07:30:09.065Z,74.02
2023-02-19T07:32:45.922Z,74.19
2023-02-19T07:35:18.395Z,74.23
2023-02-19T07:37:50.222Z,73.73
2023-02-19T07:40:22.543Z,73.94
2023-02-19T07:42:57.938Z,74.24
2023-02-19T07:45:30.430Z,74.61
2023-02-19T07:48:02.659Z,74.48
2023-02-19T07:50:39.086Z,74.09
2023-02-19T07:53:12.087Z,73.88
2023-02-19T07:55:44.194Z,74.01
2023-02-19T07:58:16.065Z,73.99
2023-02-19T08:00:48.142Z,74.11
2023-02-19T08:03:20.742Z,74.27
2023-02-19T08:05:54.178Z,73.99
2023-02-19T08:08:29.397Z,73.75
2023-02-19T08:11:24.769Z,73.57
2023-02-19T08:13:56.698Z,73.52
2023-02-19T08:16:42.124Z,73.21
2023-02-19T08:19:14.986Z,73.29
2023-02-19T08:21:48.546Z,72.92
2023-02-19T08:24:20.350Z,73.05
2023-02-19T08:26:52.123Z,73.05
2023-02-19T08:29:23.785Z,72.92
2023-02-19T08:31:55.531Z,72.77
2023-02-19T08:34:27.581Z,73.10
2023-02-19T08:37:02.889Z,72.73
2023-02-19T08:39:36.280Z,73.04
2023-02-19T08:42:12.543Z,72.75
2023-02-19T08:44:46.067Z,72.73
2023-02-19T08:47:18.429Z,72.84
2023-02-19T08:49:50.582Z,73.22
2023-02-19T08:52:22.740Z,73.10
2023-02-19T08:54:54.345Z,72.67
2023-02-19T08:57:26.839Z,72.47
2023-02-19T08:59:58.663Z,72.37
2023-02-19T09:02:31.454Z,72.67
2023-02-19T09:05:05.896Z,72.65
2023-02-19T09:07:37.760Z,72.34
2023-02-19T09:10:12.003Z,72.32
2023-02-19T09:12:44.428Z,71.99
2023-02-19T09:15:16.606Z,71.39
2023-02-19T09:17:52.388Z,71.47
2023-02-19T09:20:24.635Z,71.00
2023-02-19T09:23:00.463Z,71.03
2023-02-19T09:25:34.236Z,71.11
2023-02-19T09:28:06.636Z,71.20
2023-02-19T09:30:38.583Z,71.30
2023-02-19T09:33:11.580Z,71.04
2023-02-19T09:35:43.738Z,69.93
2023-02-19T09:38:16.091Z,69.93
2023-02-19T09:40:48.084Z,69.99
2023-02-19T09:43:24.116Z,69.63
2023-02-19T09:46:03.306Z,69.80
2023-02-19T09:48:35.675Z,69.73
2023-02-19T09:51:10.484Z,69.41
2023-02-19T09:53:48.269Z,69.43
2023-02-19T09:56:25.003Z,69.19
2023-02-19T09:59:01.283Z,68.41
2023-02-19T10:01:48.914Z,68.34
2023-02-19T10:04:27.400Z,68.65
2023-02-19T10:07:04.630Z,68.02
2023-02-19T10:09:37.887Z,67.38
2023-02-19T10:12:26.603Z,68.14
2023-02-19T10:15:04.132Z,68.09
2023-02-19T10:17:38.116Z,68.17
2023-02-19T10:20:19.247Z,67.85
2023-02-19T10:22:59.899Z,67.54
2023-02-19T10:25:36.792Z,67.64
2023-02-19T10:28:16.450Z,66.96
2023-02-19T10:30:58.040Z,66.60
2023-02-19T10:33:36.609Z,66.49
2023-02-19T10:36:31.781Z,66.38
2023-02-19T10:39:12.351Z,65.87
2023-02-19T10:41:52.542Z,65.67
2023-02-19T10:44:40.897Z,65.59
2023-02-19T10:47:25.408Z,65.70
2023-02-19T10:50:03.313Z,65.58
2023-02-19T10:52:46.148Z,65.77
2023-02-19T10:55:30.840Z,65.84
2023-02-19T10:58:26.487Z,65.23
2023-02-19T11:01:17.333Z,64.58
2023-02-19T11:03:50.437Z,64.12
2023-02-19T11:06:30.316Z,64.94
2023-02-19T11:09:04.229Z,65.14
2023-02-19T11:11:43.060Z,65.32
2023-02-19T11:14:22.351Z,64.56
2023-02-19T11:17:13.686Z,64.01
2023-02-19T11:19:52.982Z,63.65
2023-02-19T11:22:34.939Z,62.88
2023-02-19T11:25:09.722Z,62.02
2023-02-19T11:27:55.567Z,62.10
2023-02-19T11:30:40.584Z,62.55
2023-02-19T11:33:27.636Z,62.43
2023-02-19T11:36:20.145Z,62.17
2023-02-19T11:39:00.215Z,62.74
2023-02-19T11:41:52.856Z,62.55
2023-02-19T11:44:39.794Z,62.88
2023-02-19T11:47:45.819Z,62.50
2023-02-19T11:50:26.798Z,62.23
2023-02-19T11:53:16.182Z,62.16
2023-02-19T11:56:00.735Z,61.88
2023-02-19T11:59:00.652Z,61.70
2023-02-19T12:01:48.800Z,61.63
2023-02-19T12:05:15.433Z,61.42
2023-02-19T12:08:18.976Z,61.54
2023-02-19T12:11:07.473Z,61.52
2023-02-19T12:13:55.947Z,61.47
2023-02-19T12:16:50.522Z,61.44
2023-02-19T12:19:40.641Z,61.77
2023-02-19T12:22:31.560Z,61.25
2023-02-19T12:25:37.829Z,60.70
2023-02-19T12:28:27.394Z,60.79
2023-02-19T12:34:51.332Z,61.20
2023-02-19T12:37:40.400Z,61.08
2023-02-19T12:40:30.355Z,60.04
2023-02-19T12:43:16.050Z,59.69
2023-02-19T12:45:58.664Z,58.63
2023-02-19T12:48:38.736Z,57.25
2023-02-19T12:51:17.797Z,58.12
2023-02-19T12:53:58.449Z,58.15
2023-02-19T12:56:38.569Z,57.78
2023-02-19T12:59:17.045Z,57.53
2023-02-19T13:01:55.464Z,57.45
2023-02-19T13:04:36.639Z,56.59
2023-02-19T13:07:13.432Z,56.59
2023-02-19T13:09:51.036Z,57.36
2023-02-19T13:12:27.555Z,57.76
2023-02-19T13:15:06.134Z,58.02
2023-02-19T13:17:45.033Z,58.09
2023-02-19T13:20:25.240Z,58.06
2023-02-19T13:23:26.663Z,57.95
2023-02-19T13:26:25.040Z,57.82
2023-02-19T13:29:10.925Z,57.15
2023-02-19T13:32:17.856Z,56.88
2023-02-19T13:35:01.920Z,57.38
2023-02-19T13:37:39.856Z,56.61
2023-02-19T13:40:24.613Z,57.41
2023-02-19T13:43:00.096Z,57.71
2023-02-19T13:45:41.206Z,58.10
2023-02-19T13:48:31.148Z,58.05
2023-02-19T13:51:37.949Z,57.75
2023-02-19T13:54:26.206Z,57.90
2023-02-19T13:57:40.257Z,57.16
2023-02-19T14:00:54.839Z,57.57
2023-02-19T14:03:43.272Z,57.41
2023-02-19T14:06:16.533Z,57.48
2023-02-19T14:08:58.450Z,57.52
2023-02-19T14:12:07.588Z,56.75
2023-02-19T14:14:42.764Z,55.98
2023-02-19T14:17:42.717Z,56.07
2023-02-19T14:20:46.337Z,56.34
2023-02-19T14:23:28.305Z,56.17
2023-02-19T14:26:05.795Z,56.39
2023-02-19T14:28:43.927Z,56.96
2023-02-19T14:31:25.305Z,56.95
2023-02-19T14:34:03.667Z,57.31
2023-02-19T14:36:50.016Z,57.65
2023-02-19T14:39:25.737Z,57.75
2023-02-19T14:42:03.441Z,57.70
2023-02-19T14:44:49.753Z,57.88
2023-02-19T14:47:25.552Z,57.60
2023-02-19T14:50:01.707Z,57.42
2023-02-19T14:52:45.127Z,57.30
2023-02-19T14:55:27.273Z,57.37
2023-02-19T14:58:03.240Z,57.64
2023-02-19T15:00:39.576Z,57.87
2023-02-19T15:03:31.397Z,57.82
2023-02-19T15:06:20.663Z,57.71
2023-02-19T15:08:59.285Z,57.49
2023-02-19T15:11:38.257Z,57.67
2023-02-19T15:14:21.335Z,57.98
2023-02-19T15:16:58.670Z,58.00
2023-02-19T15:19:36.014Z,58.05
2023-02-19T15:22:10.095Z,57.87
2023-02-19T15:24:51.095Z,58.18
2023-02-19T15:27:27.136Z,58.62
2023-02-19T15:30:02.196Z,58.49
2023-02-19T15:32:38.412Z,58.42
2023-02-19T15:35:27.968Z,58.08
2023-02-19T15:38:01.211Z,57.86
2023-02-19T15:40:35.889Z,57.98
2023-02-19T15:43:23.815Z,58.12
2023-02-19T15:46:02.549Z,58.28
2023-02-19T15:48:43.742Z,58.28
2023-02-19T15:51:21.698Z,58.02
2023-02-19T15:54:01.128Z,57.98
2023-02-19T15:56:52.347Z,57.71
2023-02-19T15:59:32.850Z,57.84
2023-02-19T16:02:06.116Z,58.08
2023-02-19T16:04:40.713Z,58.28
2023-02-19T16:07:31.120Z,58.44
2023-02-19T16:10:24.795Z,58.49
2023-02-19T16:13:04.424Z,58.63
2023-02-19T16:15:38.512Z,59.00
2023-02-19T16:18:18.664Z,59.31
2023-02-19T16:20:58.015Z,59.24
2023-02-19T16:23:33.595Z,59.14
2023-02-19T16:26:09.871Z,59.37
2023-02-19T16:28:45.598Z,59.42
2023-02-19T16:31:27.453Z,59.40
2023-02-19T16:34:29.028Z,59.37
2023-02-19T16:37:02.760Z,59.32
2023-02-19T16:39:36.633Z,59.02
2023-02-19T16:42:30.750Z,59.13
2023-02-19T16:45:04.702Z,59.19
2023-02-19T16:47:45.788Z,59.49
2023-02-19T16:50:22.266Z,59.71
2023-02-19T16:53:01.415Z,59.60
2023-02-19T16:55:38.832Z,59.83
2023-02-19T16:58:14.406Z,60.09
2023-02-19T17:00:48.539Z,59.95
2023-02-19T17:03:25.331Z,59.96
2023-02-19T17:05:59.761Z,60.28
2023-02-19T17:08:40.291Z,60.27
2023-02-19T17:11:17.796Z,60.32
2023-02-19T17:13:51.476Z,60.41
2023-02-19T17:16:28.141Z,60.35
2023-02-19T17:19:06.519Z,60.53
2023-02-19T17:21:40.342Z,60.57
2023-02-19T17:24:18.893Z,60.83
2023-02-19T17:26:52.824Z,60.91
2023-02-19T17:29:34.883Z,61.00
2023-02-19T17:32:09.438Z,60.79
2023-02-19T17:34:44.767Z,60.86
2023-02-19T17:37:23.296Z,60.86
2023-02-19T17:39:57.643Z,61.01
2023-02-19T17:42:32.200Z,60.97
2023-02-19T17:45:07.645Z,60.79
2023-02-19T17:47:45.646Z,60.87
2023-02-19T17:50:31.702Z,60.81
2023-02-19T17:53:05.982Z,60.78
2023-02-19T17:55:40.949Z,60.79
2023-02-19T17:58:20.740Z,60.68
2023-02-19T18:00:54.392Z,60.75
2023-02-19T18:03:27.691Z,60.79
2023-02-19T18:06:07.664Z,60.72
2023-02-19T18:08:43.058Z,60.58
2023-02-19T18:11:16.505Z,60.53
2023-02-19T18:13:57.737Z,60.55
2023-02-19T18:16:34.137Z,60.73
2023-02-19T18:19:15.420Z,60.77
2023-02-19T18:21:55.303Z,60.73
2023-02-19T18:24:28.452Z,60.59
2023-02-19T18:27:03.453Z,60.49
2023-02-19T18:29:40.614Z,60.25
2023-02-19T18:32:16.360Z,60.15
2023-02-19T18:34:55.271Z,59.75
2023-02-19T18:37:30.961Z,59.91
2023-02-19T18:40:20.284Z,60.07
2023-02-19T18:42:54.639Z,60.32
2023-02-19T18:45:30.039Z,60.53
2023-02-19T18:48:04.505Z,60.71
2023-02-19T18:50:38.954Z,60.69
2023-02-19T18:53:13.973Z,60.48
2023-02-19T18:55:48.100Z,60.43
2023-02-19T18:58:27.569Z,60.49
2023-02-19T19:01:02.117Z,60.45
2023-02-19T19:03:39.684Z,60.15
2023-02-19T19:06:18.104Z,60.01
2023-02-19T19:08:55.957Z,60.31
2023-02-19T19:11:36.798Z,60.44
2023-02-19T19:14:18.655Z,60.04
2023-02-19T19:16:59.410Z,60.12
2023-02-19T19:19:35.616Z,60.14
2023-02-19T19:22:09.281Z,60.10
2023-02-19T19:24:42.322Z,60.39
2023-02-19T19:27:18.240Z,60.42
2023-02-19T19:29:51.454Z,60.70
2023-02-19T19:32:26.945Z,61.02
2023-02-19T19:35:01.507Z,61.12
2023-02-19T19:37:38.321Z,61.06
2023-02-19T19:40:18.272Z,61.03
2023-02-19T19:42:55.941Z,61.05
2023-02-19T19:45:34.046Z,61.00
2023-02-19T19:48:10.896Z,60.83
2023-02-19T19:50:45.838Z,60.93
2023-02-19T19:53:26.747Z,60.69
2023-02-19T19:56:02.000Z,60.80
2023-02-19T19:58:37.605Z,60.67
2023-02-19T20:01:12.312Z,60.81
2023-02-19T20:03:47.866Z,60.84
2023-02-19T20:06:29.511Z,60.82
2023-02-19T20:09:04.965Z,60.77
2023-02-19T20:11:49.500Z,60.80
2023-02-19T20:14:33.121Z,60.62
2023-02-19T20:17:08.944Z,60.56
2023-02-19T20:19:45.700Z,60.46
2023-02-19T20:22:24.158Z,60.36
2023-02-19T20:25:00.345Z,60.58
2023-02-19T20:27:36.517Z,60.84
2023-02-19T20:30:13.687Z,61.30
2023-02-19T20:33:08.216Z,61.51
2023-02-19T20:35:41.596Z,61.56
2023-02-19T20:38:19.725Z,61.10
2023-02-19T20:40:53.232Z,61.11
2023-02-19T20:43:28.720Z,61.12
2023-02-19T20:46:10.207Z,61.37
2023-02-19T20:48:44.455Z,61.42
2023-02-19T20:51:18.159Z,61.45
2023-02-19T20:53:53.499Z,61.72
2023-02-19T20:56:28.934Z,61.74
2023-02-19T20:59:07.332Z,61.92
2023-02-19T21:01:40.560Z,62.08
2023-02-19T21:04:19.057Z,62.05
2023-02-19T21:06:55.477Z,62.16
2023-02-19T21:09:35.573Z,61.97
2023-02-19T21:12:12.823Z,61.88
2023-02-19T21:14:50.503Z,61.67
2023-02-19T21:17:25.567Z,61.72
2023-02-19T21:19:58.134Z,61.87
2023-02-19T21:22:33.080Z,62.11
2023-02-19T21:25:14.028Z,62.19
2023-02-19T21:27:47.199Z,62.53
2023-02-19T21:30:30.123Z,62.83
2023-02-19T21:33:02.577Z,63.30
2023-02-19T21:35:35.133Z,63.27
2023-02-19T21:38:07.408Z,63.15
2023-02-19T21:40:43.500Z,63.30
2023-02-19T21:43:16.380Z,63.36
2023-02-19T21:45:49.888Z,63.30
2023-02-19T21:48:23.623Z,63.28
2023-02-19T21:50:55.801Z,63.48
2023-02-19T21:53:32.329Z,63.77
2023-02-19T21:56:04.246Z,63.55
2023-02-19T21:58:38.083Z,63.53
2023-02-19T22:01:10.569Z,63.70
2023-02-19T22:03:42.504Z,63.45
2023-02-19T22:06:14.488Z,63.78
2023-02-19T22:08:46.557Z,64.29
2023-02-19T22:11:18.812Z,64.25
2023-02-19T22:13:50.957Z,64.47
2023-02-19T22:16:23.037Z,63.97
2023-02-19T22:18:56.953Z,63.96
2023-02-19T22:21:32.829Z,63.96
2023-02-19T22:24:05.576Z,64.29
2023-02-19T22:26:39.560Z,64.20
2023-02-19T22:29:14.800Z,63.70
2023-02-19T22:31:46.946Z,63.34
2023-02-19T22:34:18.881Z,63.14
2023-02-19T22:36:50.779Z,63.25
2023-02-19T22:39:24.981Z,62.81
2023-02-19T22:41:56.856Z,62.88
2023-02-19T22:44:31.048Z,62.83
2023-02-19T22:47:04.136Z,62.76
2023-02-19T22:49:39.072Z,63.02
2023-02-19T22:52:12.287Z,63.29
2023-02-19T22:54:45.405Z,63.22
2023-02-19T22:57:17.280Z,63.21
2023-02-19T22:59:49.801Z,63.15
2023-02-19T23:02:21.521Z,63.29
2023-02-19T23:04:54.295Z,63.40
2023-02-19T23:07:26.263Z,63.47
2023-02-19T23:09:57.940Z,63.58
2023-02-19T23:12:29.886Z,63.54
2023-02-19T23:15:01.810Z,63.62
2023-02-19T23:17:34.729Z,63.79
2023-02-19T23:20:07.578Z,63.33
2023-02-19T23:22:40.696Z,63.06
2023-02-19T23:25:12.636Z,63.11
2023-02-19T23:27:45.079Z,63.22
2023-02-19T23:30:18.799Z,63.26
2023-02-19T23:32:50.830Z,62.93
2023-02-19T23:35:23.926Z,62.72
2023-02-19T23:37:56.745Z,62.87
2023-02-19T23:40:29.113Z,62.79
2023-02-19T23:43:01.110Z,62.55
2023-02-19T23:45:33.016Z,62.83
2023-02-19T23:48:06.456Z,62.80
2023-02-19T23:50:39.618Z,62.57
2023-02-19T23:53:11.711Z,62.53
2023-02-19T23:55:43.506Z,62.64
2023-02-19T23:58:16.091Z,62.56
